To NAV CANADA Home Page Login to a new session Search on AWWS site Feedback and Comments Disclaimer Vers la page française équivalente Tips FAQ What's new on the site To the Forecasts and Observations / NOTAM section To "File a Flight Plan" website Publications and other links Update of the User's profile FIC Telephone Numbers My Weather Data Folder Route Weather Data Regional Weather Data Local Weather Data To the Forecasts and Observations / NOTAM section
Request Generated 04/20/2014 at 21:25:31 UTC . Weather information available at that time is displayed.

METAR/TAF

SUDBURY/ON    

METAR CYSB 202100Z 20014KT 20SM FEW061 BKN077 OVC110 08/M01 A3013 RMK
SC1AC5AC2 SLP215=
METAR CYSB 202000Z 19014G21KT 15SM BKN063 OVC100 08/M02 A3014 RMK
SC5AC3 PRESFR SLP218=
METAR CYSB 201900Z 20010KT 20SM SCT057 OVC078 07/M01 A3017 RMK SC4AC4
SLP228=

TAF CYSB 201938Z 2020/2108 21010KT P6SM SCT060 OVC080 TEMPO 2021/2108
5SM -RA BR OVC060
RMK NXT FCST BY 210200Z=
Your time UTC time
Weather data provided by Environment Canada and NAV CANADA